Time;durP1;ratioP1;P1;durP2;ratioP2;P2;SDS_P1;SDS_P2;PMS_P1;PMS_P2;Temp;Humidity;BMP_temperature;BMP_pressure;BME280_temperature;BME280_humidity;BME280_pressure;Samples;Min_cycle;Max_cycle;Signal;HPM_P1;HPM_P2
2021/12/04 00:01:53;;;;;;;256.08;108.95;;;;;;;4.93;100.00;99497.59;5024433;28;20450;-69
2021/12/04 00:04:25;;;;;;;244.48;98.78;;;;;;;5.02;100.00;99492.69;5012812;28;20024;-69
2021/12/04 00:06:50;;;;;;;209.90;87.97;;;;;;;4.99;100.00;99490.53;5024301;28;20379;-69
2021/12/04 00:09:21;;;;;;;275.35;123.03;;;;;;;4.99;100.00;99485.22;5023759;28;20139;-69
2021/12/04 00:12:01;;;;;;;294.35;113.85;;;;;;;4.98;100.00;99484.41;5014096;28;20035;-69
2021/12/04 00:14:29;;;;;;;219.93;92.85;;;;;;;5.00;100.00;99489.50;5024714;28;20052;-69
2021/12/04 00:17:00;;;;;;;312.67;104.28;;;;;;;4.96;100.00;99502.44;5027408;28;20484;-68
2021/12/04 00:19:26;;;;;;;251.82;98.90;;;;;;;5.00;100.00;99497.47;5023581;28;20720;-70
2021/12/04 00:21:54;;;;;;;203.18;84.63;;;;;;;5.02;100.00;99506.00;5039643;28;20040;-69
2021/12/04 00:24:21;;;;;;;245.52;92.68;;;;;;;5.02;100.00;99501.47;5024513;28;20030;-71
2021/12/04 00:26:50;;;;;;;230.07;80.22;;;;;;;4.99;100.00;99503.81;5024281;28;20042;-69
2021/12/04 00:29:18;;;;;;;300.23;91.88;;;;;;;4.90;100.00;99492.00;5003289;28;20056;-68
2021/12/04 00:31:51;;;;;;;333.95;121.90;;;;;;;4.90;100.00;99494.66;5024747;28;20041;-68
2021/12/04 00:34:25;;;;;;;312.52;108.63;;;;;;;4.91;100.00;99493.59;5003801;28;20103;-69
2021/12/04 00:50:45;;;;;;;320.33;105.05;;;;;;;4.82;100.00;99468.47;5024585;28;20037;-69
2021/12/04 00:53:10;;;;;;;312.58;111.97;;;;;;;4.89;100.00;99482.41;5023316;28;20059;-69
2021/12/04 00:55:38;;;;;;;339.17;114.03;;;;;;;4.86;100.00;99470.38;5024839;28;20036;-69
2021/12/04 00:58:04;;;;;;;311.30;99.93;;;;;;;4.89;100.00;99477.88;5026141;28;20044;-70
2021/12/04 01:00:29;;;;;;;343.10;100.18;;;;;;;4.93;100.00;99476.34;5024375;28;20107;-68
2021/12/04 01:02:55;;;;;;;247.52;81.80;;;;;;;4.94;100.00;99469.19;5024005;28;20040;-69
2021/12/04 01:05:20;;;;;;;324.83;95.93;;;;;;;4.90;100.00;99465.41;5021852;28;20353;-70
2021/12/04 01:07:46;;;;;;;401.35;114.03;;;;;;;4.90;100.00;99470.72;5028410;28;20041;-69
2021/12/04 01:10:11;;;;;;;340.50;107.95;;;;;;;4.92;100.00;99452.69;5022535;28;20101;-71
2021/12/04 01:12:37;;;;;;;324.98;101.30;;;;;;;4.89;100.00;99447.84;5024335;28;20060;-69
2021/12/04 01:15:04;;;;;;;369.40;110.30;;;;;;;4.85;100.00;99441.41;5006191;28;20449;-69
2021/12/04 01:17:29;;;;;;;362.08;117.78;;;;;;;4.87;100.00;99440.09;5003345;28;20047;-69
2021/12/04 01:19:55;;;;;;;297.17;99.43;;;;;;;4.85;100.00;99462.66;5023067;28;20033;-70
2021/12/04 01:22:26;;;;;;;347.50;107.40;;;;;;;4.89;100.00;99453.16;5023059;28;20092;-69
2021/12/04 01:24:52;;;;;;;358.48;122.07;;;;;;;4.95;100.00;99452.19;5024078;28;20371;-70
2021/12/04 01:27:20;;;;;;;374.25;118.35;;;;;;;4.96;100.00;99448.47;5022249;28;20166;-69
2021/12/04 01:29:45;;;;;;;353.60;119.28;;;;;;;5.00;100.00;99447.75;5022025;28;20041;-69
2021/12/04 01:32:11;;;;;;;354.92;112.80;;;;;;;5.01;100.00;99443.25;5022354;28;20572;-69
2021/12/04 01:34:39;;;;;;;346.73;110.05;;;;;;;4.99;100.00;99443.50;5023091;28;20047;-69
2021/12/04 01:37:05;;;;;;;336.85;106.78;;;;;;;5.02;100.00;99443.00;5022258;28;20144;-69
2021/12/04 01:39:31;;;;;;;339.75;106.53;;;;;;;5.06;100.00;99443.34;5022028;28;20047;-69
2021/12/04 01:41:56;;;;;;;393.55;106.30;;;;;;;5.02;100.00;99434.22;5021008;28;20037;-70
2021/12/04 01:44:24;;;;;;;293.42;104.60;;;;;;;5.05;100.00;99439.06;5022601;28;20140;-69
2021/12/04 01:46:56;;;;;;;311.98;107.25;;;;;;;5.03;100.00;99433.16;5023175;28;20096;-68
2021/12/04 01:49:25;;;;;;;268.70;99.50;;;;;;;5.06;100.00;99427.38;5023016;28;20056;-69
2021/12/04 01:51:51;;;;;;;350.52;125.93;;;;;;;5.03;100.00;99422.53;5022262;28;20161;-69
2021/12/04 01:54:16;;;;;;;317.15;116.15;;;;;;;5.13;100.00;99438.66;5021009;28;20261;-70
2021/12/04 01:56:42;;;;;;;290.92;102.85;;;;;;;5.10;100.00;99433.81;5022737;28;20155;-69
2021/12/04 01:59:08;;;;;;;293.08;95.40;;;;;;;5.13;100.00;99443.97;5025634;28;20507;-69
2021/12/04 02:01:37;;;;;;;255.90;89.47;;;;;;;5.13;100.00;99448.47;5022831;28;20029;-69
2021/12/04 02:04:02;;;;;;;282.73;97.50;;;;;;;5.06;100.00;99438.03;5010609;28;20134;-69
2021/12/04 02:06:30;;;;;;;298.52;90.82;;;;;;;5.11;100.00;99443.41;5022637;28;20043;-69
2021/12/04 02:08:56;;;;;;;347.38;109.53;;;;;;;5.15;100.00;99441.88;5020118;28;20033;-69
2021/12/04 02:11:21;;;;;;;365.55;114.60;;;;;;;5.16;100.00;99440.03;5021179;28;20096;-69
2021/12/04 02:13:47;;;;;;;317.40;85.22;;;;;;;5.16;100.00;99427.53;5022184;28;20227;-69
2021/12/04 02:16:20;;;;;;;348.02;105.95;;;;;;;5.15;100.00;99431.25;5022370;28;20125;-69
2021/12/04 02:18:46;;;;;;;375.25;104.30;;;;;;;5.17;100.00;99434.44;5009809;28;20057;-69
2021/12/04 02:21:12;;;;;;;337.33;97.05;;;;;;;5.10;100.00;99425.84;5020862;28;20028;-70
2021/12/04 02:23:38;;;;;;;316.52;83.22;;;;;;;5.16;100.00;99434.69;5020807;28;20036;-70
2021/12/04 02:26:03;;;;;;;364.60;103.20;;;;;;;5.10;100.00;99425.84;5009853;28;20029;-70
2021/12/04 02:28:31;;;;;;;333.95;78.85;;;;;;;5.07;100.00;99424.47;5026576;28;20033;-70
2021/12/04 02:30:59;;;;;;;276.17;87.53;;;;;;;5.11;100.00;99424.78;5020560;28;20037;-70
2021/12/04 02:33:25;;;;;;;363.60;103.53;;;;;;;5.17;100.00;99418.50;5020201;28;20042;-70
2021/12/04 02:35:53;;;;;;;337.40;95.32;;;;;;;5.16;100.00;99429.38;5021619;28;20037;-70
2021/12/04 02:38:23;;;;;;;291.58;76.57;;;;;;;5.13;100.00;99417.38;5010186;28;20052;-70
2021/12/04 02:40:52;;;;;;;297.00;78.38;;;;;;;5.19;100.00;99426.22;5020940;28;20043;-70
2021/12/04 02:43:18;;;;;;;262.58;68.55;;;;;;;5.23;100.00;99412.22;5022343;28;20048;-69
2021/12/04 02:45:44;;;;;;;281.23;77.25;;;;;;;5.22;100.00;99421.25;5022268;28;20029;-70
2021/12/04 02:48:12;;;;;;;300.35;79.40;;;;;;;5.21;100.00;99421.47;5022101;28;20140;-70
2021/12/04 02:50:38;;;;;;;293.98;79.80;;;;;;;5.20;100.00;99412.69;5009730;28;20148;-69
2021/12/04 02:53:05;;;;;;;301.33;79.20;;;;;;;5.21;100.00;99406.34;5022612;28;20521;-68
2021/12/04 02:55:34;;;;;;;350.67;96.60;;;;;;;5.17;100.00;99407.88;5036806;28;20055;-70
2021/12/04 02:58:00;;;;;;;396.58;107.65;;;;;;;5.22;100.00;99410.59;5021556;28;20037;-69
2021/12/04 03:00:28;;;;;;;389.85;111.65;;;;;;;5.12;100.00;99399.81;5021015;28;20048;-69
2021/12/04 03:02:57;;;;;;;407.88;112.47;;;;;;;5.21;100.00;99398.38;5023939;28;20036;-69
2021/12/04 03:05:26;;;;;;;387.88;89.95;;;;;;;5.15;100.00;99383.38;5021901;28;20389;-69
2021/12/04 03:07:52;;;;;;;344.98;93.45;;;;;;;5.25;100.00;99396.81;5021120;28;20068;-69
2021/12/04 03:10:21;;;;;;;326.35;97.80;;;;;;;5.31;100.00;99398.50;5036560;28;20028;-69
2021/12/04 03:12:47;;;;;;;304.23;87.72;;;;;;;5.31;100.00;99398.50;5009502;28;20056;-69
2021/12/04 03:15:13;;;;;;;352.63;92.13;;;;;;;5.29;100.00;99400.59;5021107;28;20036;-70
2021/12/04 03:17:39;;;;;;;294.38;74.07;;;;;;;5.34;100.00;99390.00;5024746;28;20051;-69
2021/12/04 03:20:05;;;;;;;319.83;86.47;;;;;;;5.30;100.00;99391.56;5022049;28;20161;-69
2021/12/04 03:22:31;;;;;;;340.35;103.13;;;;;;;5.31;100.00;99382.53;5020791;28;20087;-69
2021/12/04 03:24:58;;;;;;;352.60;103.97;;;;;;;5.31;100.00;99379.88;5026116;28;20071;-70
2021/12/04 03:27:25;;;;;;;336.90;90.13;;;;;;;5.26;100.00;99374.47;5021310;28;20335;-70
2021/12/04 03:29:59;;;;;;;313.65;80.88;;;;;;;5.31;100.00;99379.88;5022457;28;20181;-69
2021/12/04 03:32:55;;;;;;;344.50;96.15;;;;;;;5.35;100.00;99373.00;5021517;28;20045;-69
2021/12/04 03:41:02;;;;;;;341.48;87.38;;;;;;;5.34;100.00;99360.75;5025530;28;20131;-69
2021/12/04 03:43:29;;;;;;;274.17;66.43;;;;;;;5.34;100.00;99360.75;5020710;28;20075;-69
2021/12/04 03:46:01;;;;;;;241.32;59.33;;;;;;;5.33;100.00;99363.66;5036199;28;20570;-69
2021/12/04 03:51:00;;;;;;;240.75;59.97;;;;;;;5.25;100.00;99356.91;5025426;28;20041;-69
2021/12/04 03:53:26;;;;;;;250.07;63.20;;;;;;;5.02;100.00;99326.03;5006964;28;20342;-69
2021/12/04 03:55:54;;;;;;;276.02;63.38;;;;;;;5.30;100.00;99354.34;5024297;28;20506;-69
2021/12/04 03:58:22;;;;;;;280.75;78.82;;;;;;;5.25;100.00;99359.59;5025065;28;20134;-69
2021/12/04 04:00:48;;;;;;;263.02;69.03;;;;;;;5.29;100.00;99351.91;5026025;28;20460;-69
2021/12/04 04:03:15;;;;;;;309.15;64.75;;;;;;;5.31;100.00;99360.47;5023692;28;20047;-70
2021/12/04 04:05:41;;;;;;;264.80;69.50;;;;;;;5.28;100.00;99359.06;5025426;28;20278;-69
2021/12/04 04:08:07;;;;;;;225.98;56.22;;;;;;;5.32;100.00;99357.56;5024950;28;20131;-69
2021/12/04 04:10:35;;;;;;;225.93;63.45;;;;;;;5.33;100.00;99353.84;5028767;28;20037;-69
2021/12/04 04:13:00;;;;;;;235.52;61.65;;;;;;;5.33;100.00;99345.84;5012377;28;20287;-69
2021/12/04 04:15:26;;;;;;;245.85;58.92;;;;;;;5.33;100.00;99334.41;5024908;28;20441;-69
2021/12/04 04:17:52;;;;;;;226.27;62.75;;;;;;;5.29;100.00;99327.97;5023681;28;20404;-69
2021/12/04 04:20:20;;;;;;;227.55;58.45;;;;;;;5.33;100.00;99332.56;5024561;28;20079;-69
2021/12/04 04:22:48;;;;;;;247.82;62.45;;;;;;;5.30;100.00;99329.59;5026939;28;20124;-69
2021/12/04 04:25:15;;;;;;;240.00;60.47;;;;;;;5.33;100.00;99326.44;4995316;28;20043;-70
2021/12/04 04:27:41;;;;;;;232.02;55.70;;;;;;;5.32;100.00;99319.50;5004397;28;20037;-70
2021/12/04 04:30:13;;;;;;;234.23;56.85;;;;;;;5.18;100.00;99305.78;5012401;28;20055;-70
2021/12/04 04:32:44;;;;;;;247.90;63.55;;;;;;;5.34;100.00;99325.38;5024747;28;20071;-69
2021/12/04 04:35:15;;;;;;;257.73;61.78;;;;;;;5.39;100.00;99327.31;5024745;28;20068;-69
2021/12/04 04:59:28;;;;;;;291.02;74.93;;;;;;;5.43;100.00;99293.84;5023784;28;20411;-70
2021/12/04 05:02:05;;;;;;;224.32;61.15;;;;;;;5.53;100.00;99313.34;5023840;28;20032;-68
2021/12/04 05:12:53;;;;;;;260.55;66.82;;;;;;;5.59;100.00;99314.22;5024179;28;20468;-70
2021/12/04 05:18:37;;;;;;;280.63;73.18;;;;;;;5.66;100.00;99309.53;5026129;28;20163;-70
2021/12/04 05:21:06;;;;;;;300.60;83.30;;;;;;;5.68;100.00;99302.09;5022212;28;20056;-70
2021/12/04 05:23:47;;;;;;;224.60;69.00;;;;;;;5.71;100.00;99296.28;5003398;28;20063;-70
2021/12/04 05:26:16;;;;;;;224.60;63.42;;;;;;;5.68;100.00;99285.31;5023758;28;20070;-70
2021/12/04 05:28:42;;;;;;;229.52;67.93;;;;;;;5.74;100.00;99290.44;5021808;28;20051;-71
2021/12/04 05:31:07;;;;;;;207.90;64.05;;;;;;;5.72;100.00;99287.25;5026621;28;20049;-70
2021/12/04 05:33:33;;;;;;;202.73;60.88;;;;;;;5.73;100.00;99283.53;5023447;28;20209;-70
2021/12/04 05:36:01;;;;;;;239.13;70.43;;;;;;;5.63;100.00;99272.78;5024217;28;20117;-70
2021/12/04 05:38:31;;;;;;;266.48;83.65;;;;;;;5.77;100.00;99279.28;5011464;28;20119;-70
2021/12/04 05:40:59;;;;;;;258.48;80.28;;;;;;;5.73;100.00;99272.88;5023649;28;20262;-70
2021/12/04 05:43:28;;;;;;;246.07;82.93;;;;;;;5.76;100.00;99269.69;5025977;28;20472;-70
2021/12/04 05:46:15;;;;;;;288.25;108.53;;;;;;;5.76;100.00;99255.59;5022486;28;20487;-70
2021/12/04 05:53:54;;;;;;;212.25;63.45;;;;;;;5.90;100.00;99256.78;5023029;28;20742;-70
2021/12/04 05:56:20;;;;;;;236.35;65.85;;;;;;;5.90;100.00;99249.63;5022943;28;20174;-70
2021/12/04 05:58:48;;;;;;;228.85;72.93;;;;;;;5.93;100.00;99255.50;5021322;28;20047;-70
2021/12/04 06:01:15;;;;;;;260.02;96.93;;;;;;;5.89;100.00;99263.97;5022543;28;20407;-70
2021/12/04 06:03:41;;;;;;;337.00;116.70;;;;;;;5.97;100.00;99262.75;5010244;28;20029;-70
2021/12/04 06:06:09;;;;;;;315.20;121.70;;;;;;;5.93;100.00;99260.81;5023079;28;20765;-70
2021/12/04 06:08:37;;;;;;;345.30;123.90;;;;;;;5.92;100.00;99252.03;5026118;28;20037;-70
2021/12/04 06:11:02;;;;;;;287.15;110.68;;;;;;;5.90;100.00;99246.16;5022736;28;20081;-71
2021/12/04 06:13:28;;;;;;;313.63;120.88;;;;;;;5.89;100.00;99248.00;5026796;28;20063;-71
2021/12/04 06:15:56;;;;;;;321.00;120.88;;;;;;;5.90;100.00;99262.13;5037905;28;20036;-69
2021/12/04 06:18:22;;;;;;;270.83;90.97;;;;;;;5.89;100.00;99256.00;5021227;28;20033;-69
2021/12/04 06:23:35;;;;;;;262.23;92.03;;;;;;;5.85;100.00;99252.22;5022788;28;20075;-69
2021/12/04 06:26:06;;;;;;;314.90;109.93;;;;;;;5.87;100.00;99255.44;5022663;28;20233;-70
2021/12/04 06:28:31;;;;;;;298.05;100.40;;;;;;;5.87;100.00;99249.31;5010811;28;20048;-69
2021/12/04 06:31:00;;;;;;;303.70;101.47;;;;;;;5.87;100.00;99246.66;5021624;28;20036;-69
2021/12/04 06:33:28;;;;;;;290.27;105.53;;;;;;;5.92;100.00;99248.59;5020824;28;20038;-69
2021/12/04 06:35:56;;;;;;;276.80;91.72;;;;;;;5.95;100.00;99248.09;5021820;28;20129;-69
2021/12/04 06:38:22;;;;;;;247.70;79.72;;;;;;;5.91;100.00;99242.47;5022299;28;20132;-69
2021/12/04 06:40:50;;;;;;;234.65;79.57;;;;;;;5.99;100.00;99251.84;5024916;28;20029;-69
2021/12/04 06:43:16;;;;;;;227.20;87.93;;;;;;;6.01;100.00;99253.19;5037747;28;20040;-69
2021/12/04 06:45:54;;;;;;;257.33;98.63;;;;;;;5.94;100.00;99246.47;5009878;28;20213;-70
2021/12/04 06:48:23;;;;;;;240.50;89.65;;;;;;;6.00;100.00;99253.44;5011248;28;20048;-69
2021/12/04 06:51:05;;;;;;;220.50;77.25;;;;;;;5.98;100.00;99252.91;5024183;28;20435;-69
2021/12/04 06:53:41;;;;;;;246.73;98.22;;;;;;;5.96;100.00;99252.34;5021364;28;20047;-68
2021/12/04 06:56:08;;;;;;;275.10;95.95;;;;;;;5.88;100.00;99241.09;5021946;28;20569;-70
2021/12/04 06:58:41;;;;;;;258.70;94.93;;;;;;;5.97;100.00;99243.31;5022537;28;20737;-71
2021/12/04 07:01:10;;;;;;;232.07;72.88;;;;;;;5.95;100.00;99242.78;5020777;28;20067;-70
2021/12/04 07:03:37;;;;;;;162.43;53.13;;;;;;;5.85;100.00;99232.78;5021210;28;20043;-68
2021/12/04 07:06:05;;;;;;;168.38;55.75;;;;;;;5.89;100.00;99234.69;5021420;28;20070;-69
2021/12/04 07:08:33;;;;;;;181.23;58.47;;;;;;;5.94;100.00;99227.81;5034029;28;20567;-68
2021/12/04 07:10:59;;;;;;;168.27;55.80;;;;;;;6.04;100.00;99235.91;5022155;28;20041;-70
2021/12/04 07:13:25;;;;;;;153.43;49.38;;;;;;;6.05;100.00;99226.88;5020151;28;20033;-68
2021/12/04 07:16:01;;;;;;;148.00;50.40;;;;;;;5.93;100.00;99219.03;5022808;28;20037;-69
2021/12/04 07:18:27;;;;;;;162.13;59.17;;;;;;;6.00;100.00;99218.84;5022107;28;20036;-70
2021/12/04 07:20:52;;;;;;;189.35;61.88;;;;;;;5.98;100.00;99226.28;5023674;28;20435;-69
2021/12/04 07:23:18;;;;;;;173.10;55.60;;;;;;;5.96;100.00;99226.53;5024236;28;20036;-69
2021/12/04 07:25:44;;;;;;;156.77;55.35;;;;;;;5.91;100.00;99221.16;5025772;28;20060;-69
2021/12/04 07:28:11;;;;;;;146.38;51.72;;;;;;;5.94;100.00;99222.50;5025703;28;20384;-69
2021/12/04 07:30:37;;;;;;;125.90;45.42;;;;;;;5.82;100.00;99210.16;5026417;28;20035;-69
2021/12/04 07:33:02;;;;;;;133.30;45.22;;;;;;;5.87;100.00;99214.72;5024685;28;20045;-69
2021/12/04 07:35:30;;;;;;;144.13;49.13;;;;;;;5.90;100.00;99209.72;5025227;28;20583;-69
2021/12/04 07:38:00;;;;;;;139.88;47.00;;;;;;;5.88;100.00;99221.66;5022803;28;20063;-70
2021/12/04 07:40:26;;;;;;;142.40;45.85;;;;;;;5.87;100.00;99215.53;5035942;28;20261;-70
2021/12/04 07:42:54;;;;;;;146.93;44.15;;;;;;;5.86;100.00;99213.91;5025061;28;21079;-70
2021/12/04 07:45:20;;;;;;;146.80;44.95;;;;;;;5.84;100.00;99191.25;5022892;28;20024;-70
2021/12/04 07:47:48;;;;;;;149.43;45.58;;;;;;;5.88;100.00;99190.50;5025849;28;20404;-69
2021/12/04 07:50:18;;;;;;;159.80;44.42;;;;;;;5.86;100.00;99171.34;5025064;28;20041;-71
2021/12/04 07:52:49;;;;;;;154.98;42.83;;;;;;;5.77;100.00;99169.38;5025294;28;20021;-70
2021/12/04 07:55:17;;;;;;;150.27;39.47;;;;;;;5.69;100.00;99170.63;4991379;28;20111;-70
2021/12/04 07:57:43;;;;;;;144.43;39.72;;;;;;;5.66;100.00;99194.31;5024713;28;20048;-70
2021/12/04 08:00:13;;;;;;;141.75;39.58;;;;;;;5.69;100.00;99202.56;5025483;28;20330;-69
2021/12/04 08:02:43;;;;;;;148.20;42.35;;;;;;;5.63;100.00;99193.75;5025459;28;20743;-69
2021/12/04 08:05:09;;;;;;;164.63;46.75;;;;;;;5.70;100.00;99180.25;5024022;28;20131;-69
2021/12/04 08:07:40;;;;;;;186.95;49.38;;;;;;;5.67;100.00;99183.41;5027770;28;20526;-69
2021/12/04 08:10:07;;;;;;;177.10;49.25;;;;;;;5.76;100.00;99197.03;5024686;28;20484;-68
2021/12/04 08:12:38;;;;;;;169.85;44.22;;;;;;;5.80;100.00;99183.00;5027222;28;20037;-70
2021/12/04 08:15:05;;;;;;;172.05;41.58;;;;;;;5.77;100.00;99183.47;5025050;28;20022;-69
2021/12/04 08:17:37;;;;;;;154.82;41.70;;;;;;;5.63;100.00;99177.00;5014071;28;20288;-69
2021/12/04 08:20:04;;;;;;;171.07;40.92;;;;;;;5.74;100.00;99202.63;5024365;28;20079;-70
2021/12/04 08:22:29;;;;;;;161.52;38.17;;;;;;;5.76;100.00;99194.38;5039945;28;20033;-70
2021/12/04 08:24:57;;;;;;;230.48;44.83;;;;;;;5.73;100.00;99184.25;5027626;28;20037;-69
2021/12/04 08:27:23;;;;;;;174.25;40.83;;;;;;;5.67;100.00;99194.03;5025049;28;20040;-69
2021/12/04 08:29:53;;;;;;;195.45;42.08;;;;;;;5.53;100.00;99190.19;5023911;28;20087;-70
2021/12/04 08:32:24;;;;;;;175.98;41.28;;;;;;;5.49;100.00;99197.09;5023860;28;20052;-69
2021/12/04 08:34:51;;;;;;;150.85;38.00;;;;;;;5.35;100.00;99197.47;5023136;28;20068;-70
2021/12/04 08:37:16;;;;;;;172.77;43.40;;;;;;;5.39;100.00;99195.13;5011313;28;20484;-69
2021/12/04 08:39:44;;;;;;;176.82;51.92;;;;;;;5.47;100.00;99199.19;5039736;28;20119;-69
2021/12/04 08:42:13;;;;;;;210.80;48.10;;;;;;;5.46;100.00;99202.91;5025769;28;20175;-69
2021/12/04 08:44:38;;;;;;;190.23;45.85;;;;;;;5.52;100.00;99200.03;5024287;28;20041;-69
2021/12/04 08:47:07;;;;;;;190.57;46.90;;;;;;;5.52;100.00;99202.69;5024354;28;20044;-69
2021/12/04 08:49:35;;;;;;;198.35;45.88;;;;;;;5.54;100.00;99199.81;5023462;28;20025;-69
2021/12/04 08:52:04;;;;;;;176.80;44.08;;;;;;;5.57;100.00;99193.97;5024453;28;20647;-68
2021/12/04 08:54:31;;;;;;;182.23;47.13;;;;;;;5.57;100.00;99178.00;5023116;28;20532;-70
2021/12/04 08:56:57;;;;;;;215.05;49.55;;;;;;;5.57;100.00;99180.66;5023995;28;20036;-71
2021/12/04 08:59:22;;;;;;;217.57;45.47;;;;;;;5.60;100.00;99180.94;5023531;28;20032;-71
2021/12/04 09:01:48;;;;;;;177.82;44.90;;;;;;;5.58;100.00;99179.59;5022839;28;20037;-69
2021/12/04 09:04:18;;;;;;;163.23;43.47;;;;;;;5.52;100.00;99175.28;5023341;28;22308;-70
2021/12/04 09:06:46;;;;;;;270.08;82.90;;;;;;;5.51;100.00;99163.84;5023845;28;20124;-69
2021/12/04 09:09:14;;;;;;;299.73;79.78;;;;;;;5.62;100.00;99160.22;5023577;28;20032;-70
2021/12/04 09:11:49;;;;;;;264.55;58.25;;;;;;;5.60;100.00;99156.19;5038015;28;20039;-69
2021/12/04 09:14:18;;;;;;;198.52;46.55;;;;;;;5.63;100.00;99172.47;5008872;28;20209;-69
2021/12/04 09:16:44;;;;;;;248.48;49.30;;;;;;;5.64;100.00;99178.59;5039213;28;20032;-70
2021/12/04 09:19:14;;;;;;;177.07;49.92;;;;;;;5.55;100.00;99164.16;5021579;28;20032;-69
2021/12/04 09:21:40;;;;;;;284.80;103.63;;;;;;;5.62;100.00;99168.22;5012135;28;20039;-70
2021/12/04 09:24:11;;;;;;;204.95;60.33;;;;;;;5.60;100.00;99175.63;5022898;28;20479;-70
2021/12/04 09:26:42;;;;;;;175.88;46.88;;;;;;;5.56;100.00;99155.13;5023384;28;20047;-70
2021/12/04 09:31:58;;;;;;;189.00;51.85;;;;;;;5.54;100.00;99157.25;5037953;28;20044;-69
2021/12/04 10:00:11;;;;;;;151.90;36.42;;;;;;;5.41;100.00;99158.44;5012686;28;20037;-70
2021/12/04 10:13:17;;;;;;;97.25;31.08;;;;;;;5.40;100.00;99108.97;5022304;28;20040;-70
2021/12/04 10:34:45;;;;;;;87.82;29.00;;;;;;;5.32;100.00;99090.81;5035265;28;20120;-69
2021/12/04 10:37:23;;;;;;;85.35;26.60;;;;;;;5.28;100.00;99090.50;5022372;28;20047;-69
2021/12/04 10:39:55;;;;;;;75.70;23.75;;;;;;;5.19;100.00;99093.88;5022524;28;20443;-70
2021/12/04 10:42:32;;;;;;;76.30;23.02;;;;;;;5.20;100.00;99098.94;5021580;28;20110;-70
2021/12/04 10:45:00;;;;;;;71.80;23.42;;;;;;;5.16;100.00;99089.06;5021985;28;20025;-69
2021/12/04 10:47:27;;;;;;;92.10;27.52;;;;;;;5.07;100.00;99088.72;5036928;28;20037;-68
2021/12/04 10:50:21;;;;;;;85.43;26.90;;;;;;;5.09;100.00;99085.81;5021307;28;20566;-69
2021/12/04 11:04:40;;;;;;;145.07;58.20;;;;;;;5.02;100.00;99075.38;5007910;28;20128;-69
2021/12/04 11:07:55;;;;;;;173.10;64.47;;;;;;;5.05;100.00;99070.38;5026212;28;20062;-69
2021/12/04 11:19:52;;;;;;;101.47;31.63;;;;;;;5.09;100.00;99064.56;5024466;28;20112;-69
2021/12/04 11:42:57;;;;;;;132.88;41.60;;;;;;;5.24;100.00;99038.09;5024093;28;20030;-69
2021/12/04 11:45:31;;;;;;;155.60;48.85;;;;;;;5.26;100.00;99026.16;5023887;28;20021;-68
2021/12/04 11:47:59;;;;;;;174.23;59.72;;;;;;;5.27;100.00;99032.25;5024265;28;20040;-69
2021/12/04 11:50:31;;;;;;;173.38;69.10;;;;;;;5.39;100.00;99042.75;5012504;28;20098;-69
2021/12/04 11:52:59;;;;;;;178.75;52.53;;;;;;;5.42;100.00;99039.56;5038897;28;20198;-70
2021/12/04 11:55:26;;;;;;;167.77;64.43;;;;;;;5.41;100.00;99036.09;5024235;28;20028;-69
2021/12/04 11:57:57;;;;;;;155.60;51.70;;;;;;;5.42;100.00;99031.59;5012492;28;20060;-70
2021/12/04 12:00:30;;;;;;;133.75;48.90;;;;;;;5.29;100.00;99017.69;5028366;28;20198;-69
2021/12/04 12:03:14;;;;;;;175.13;72.13;;;;;;;5.49;100.00;99026.84;5022417;28;20122;-68
2021/12/04 12:05:43;;;;;;;199.20;73.78;;;;;;;5.50;100.00;99020.47;5011942;28;21950;-68
2021/12/04 12:08:29;;;;;;;233.35;79.68;;;;;;;5.45;100.00;99029.19;5023815;28;20168;-69
2021/12/04 12:11:03;;;;;;;198.18;78.60;;;;;;;5.42;100.00;99015.63;5026278;28;20044;-70
2021/12/04 12:13:46;;;;;;;165.60;59.50;;;;;;;5.57;100.00;99015.72;5025145;28;20032;-69
2021/12/04 12:16:18;;;;;;;142.13;42.65;;;;;;;5.53;100.00;99025.25;5024777;28;20036;-69
2021/12/04 12:19:01;;;;;;;124.78;40.47;;;;;;;5.58;100.00;99018.13;5024511;28;20032;-68
2021/12/04 12:21:48;;;;;;;143.77;43.30;;;;;;;5.52;100.00;99013.03;5022759;28;20045;-68
2021/12/04 12:38:15;;;;;;;164.32;41.90;;;;;;;5.50;100.00;99009.81;5023716;28;20039;-68
2021/12/04 12:40:41;;;;;;;140.75;39.25;;;;;;;5.51;100.00;99016.75;5023894;28;20072;-68
2021/12/04 12:43:15;;;;;;;153.90;43.45;;;;;;;5.43;100.00;98999.41;5018351;28;20508;-68
2021/12/04 12:45:52;;;;;;;143.82;40.40;;;;;;;5.49;100.00;99010.88;5011693;28;20075;-68
2021/12/04 12:48:18;;;;;;;150.70;40.15;;;;;;;5.54;100.00;98997.63;5024505;28;20080;-68
2021/12/04 12:50:48;;;;;;;132.35;36.90;;;;;;;5.63;100.00;99004.06;5025067;28;20037;-68
2021/12/04 12:53:17;;;;;;;135.18;40.50;;;;;;;5.62;100.00;98994.47;5011322;28;20032;-68
2021/12/04 12:55:45;;;;;;;152.00;41.97;;;;;;;5.68;100.00;98990.78;5023809;28;20040;-71
2021/12/04 12:58:38;;;;;;;140.13;36.97;;;;;;;5.76;100.00;98995.59;5022276;28;20052;-69
2021/12/04 13:12:51;;;;;;;117.70;35.47;;;;;;;5.79;100.00;98981.00;4992531;28;20941;-69
2021/12/04 13:15:34;;;;;;;98.47;33.13;;;;;;;5.87;100.00;98991.16;5023925;28;20029;-68
2021/12/04 13:18:22;;;;;;;118.20;42.08;;;;;;;5.85;100.00;98983.41;5021767;28;20562;-68
2021/12/04 13:20:50;;;;;;;97.55;34.78;;;;;;;5.85;100.00;98986.06;5028433;28;20516;-68
2021/12/04 13:23:19;;;;;;;85.20;30.58;;;;;;;5.81;100.00;99000.97;5022152;28;21093;-68
2021/12/04 13:26:08;;;;;;;75.47;20.92;;;;;;;5.72;100.00;98994.53;5024076;28;20112;-69
2021/12/04 13:28:38;;;;;;;13.45;3.63;;;;;;;5.64;100.00;98995.03;5038355;28;20044;-69
2021/12/04 13:31:05;;;;;;;9.43;1.90;;;;;;;5.57;100.00;99002.44;5026789;28;20194;-68
2021/12/04 13:33:32;;;;;;;5.55;0.82;;;;;;;5.46;100.00;98992.78;5021581;28;20073;-68
2021/12/04 13:36:01;;;;;;;8.75;1.15;;;;;;;5.49;100.00;98990.41;5020682;28;20029;-68
2021/12/04 13:38:29;;;;;;;21.02;1.45;;;;;;;5.46;100.00;98990.13;5024187;28;20408;-68
2021/12/04 13:40:56;;;;;;;11.18;1.30;;;;;;;5.49;100.00;98990.41;5034677;28;20814;-68
2021/12/04 13:43:25;;;;;;;5.63;0.80;;;;;;;5.45;100.00;98996.47;5020395;28;20546;-68
2021/12/04 13:46:01;;;;;;;8.30;0.88;;;;;;;5.47;100.00;98991.72;5034783;28;20047;-67
2021/12/04 13:48:32;;;;;;;6.75;1.27;;;;;;;5.57;100.00;98986.47;5034565;28;20744;-68
2021/12/04 13:50:59;;;;;;;15.20;1.50;;;;;;;5.58;100.00;98998.69;5020407;28;20029;-68
2021/12/04 13:53:35;;;;;;;8.48;1.00;;;;;;;5.59;100.00;99005.63;5020079;28;20037;-69
2021/12/04 13:56:05;;;;;;;6.50;0.80;;;;;;;5.54;100.00;99000.28;5020500;28;20037;-69
2021/12/04 13:58:31;;;;;;;8.70;1.00;;;;;;;5.54;100.00;98994.97;5021583;28;20512;-69
2021/12/04 14:00:59;;;;;;;15.98;1.27;;;;;;;5.58;100.00;98988.88;5024815;28;20041;-69
2021/12/04 14:03:29;;;;;;;7.10;0.95;;;;;;;5.58;100.00;98988.06;5019388;28;20386;-69
2021/12/04 14:05:54;;;;;;;5.85;1.17;;;;;;;5.59;100.00;98984.34;5021158;28;20021;-68
2021/12/04 14:08:20;;;;;;;5.85;0.75;;;;;;;5.65;100.00;98988.63;5035492;28;20830;-69
2021/12/04 14:10:49;;;;;;;10.98;1.85;;;;;;;5.69;100.00;98992.38;5021489;28;20483;-69
2021/12/04 14:13:20;;;;;;;6.93;1.00;;;;;;;5.66;100.00;98979.59;5018692;28;20629;-69
2021/12/04 14:15:50;;;;;;;14.75;2.33;;;;;;;5.72;100.00;98993.72;5023931;28;20646;-69
2021/12/04 14:18:22;;;;;;;6.60;1.33;;;;;;;5.72;100.00;98986.56;5023645;28;20587;-69
2021/12/04 14:20:52;;;;;;;6.93;1.50;;;;;;;5.58;100.00;98985.41;5010042;28;20524;-69
2021/12/04 14:23:18;;;;;;;7.93;1.50;;;;;;;5.66;100.00;98989.44;5021633;28;20036;-70
2021/12/04 14:25:44;;;;;;;10.07;1.60;;;;;;;5.69;100.00;98988.91;5021138;28;20036;-70
2021/12/04 14:28:21;;;;;;;12.88;2.28;;;;;;;5.77;100.00;98991.06;5020276;28;20064;-69